Terminal Aerodrome Forecast
Issued by NWS Des Moines, IA

Home | Current Version | Previous Version | Text Only | Print | Product List | Glossary On
Versions: 1 2 3 4 5 6 7 8 9 10 11 12 13 14 15 16 17 18 19 20 21 22 23 24
000
FTUS43 KDMX 071732
TAFDSM
TAF
KDSM 071732Z 0718/0818 30014G22KT P6SM FEW040 BKN200
     FM081100 30014G20KT P6SM BKN028=

USA.gov is the U.S. government's official web portal to all federal, state and local government web resources and services.